sensor_id;sensor_type;location;lat;lon;timestamp;pressure;altitude;pressure_sealevel;temperature;humidity
4745;BME280;2386;42.138;24.746;2023-08-06T00:00:37;98207.97;;;27.57;100.00
4745;BME280;2386;42.138;24.746;2023-08-06T00:03:02;98201.16;;;27.54;100.00
4745;BME280;2386;42.138;24.746;2023-08-06T00:05:28;98208.72;;;27.54;100.00
4745;BME280;2386;42.138;24.746;2023-08-06T00:07:53;98194.41;;;27.55;100.00
4745;BME280;2386;42.138;24.746;2023-08-06T00:10:19;98190.75;;;27.47;100.00
4745;BME280;2386;42.138;24.746;2023-08-06T00:12:44;98185.28;;;27.58;100.00
4745;BME280;2386;42.138;24.746;2023-08-06T00:15:10;98186.00;;;27.52;100.00
4745;BME280;2386;42.138;24.746;2023-08-06T00:17:36;98182.47;;;27.55;100.00
4745;BME280;2386;42.138;24.746;2023-08-06T00:20:03;98180.44;;;27.52;100.00
4745;BME280;2386;42.138;24.746;2023-08-06T00:22:34;98182.78;;;27.49;100.00
4745;BME280;2386;42.138;24.746;2023-08-06T00:25:01;98177.47;;;27.37;100.00
4745;BME280;2386;42.138;24.746;2023-08-06T00:27:26;98180.69;;;27.39;100.00
4745;BME280;2386;42.138;24.746;2023-08-06T00:29:52;98174.16;;;27.28;100.00
4745;BME280;2386;42.138;24.746;2023-08-06T00:32:19;98184.94;;;27.30;100.00
4745;BME280;2386;42.138;24.746;2023-08-06T00:34:44;98190.56;;;27.33;100.00
4745;BME280;2386;42.138;24.746;2023-08-06T00:37:09;98202.44;;;27.30;100.00
4745;BME280;2386;42.138;24.746;2023-08-06T00:39:35;98192.16;;;27.34;100.00
4745;BME280;2386;42.138;24.746;2023-08-06T00:42:00;98188.94;;;27.32;100.00
4745;BME280;2386;42.138;24.746;2023-08-06T00:44:25;98185.53;;;27.16;100.00
4745;BME280;2386;42.138;24.746;2023-08-06T00:46:51;98180.41;;;27.18;100.00
4745;BME280;2386;42.138;24.746;2023-08-06T00:49:16;98170.34;;;27.10;100.00
4745;BME280;2386;42.138;24.746;2023-08-06T00:51:42;98173.97;;;27.14;100.00
4745;BME280;2386;42.138;24.746;2023-08-06T00:54:08;98177.50;;;27.11;100.00
4745;BME280;2386;42.138;24.746;2023-08-06T00:56:34;98174.28;;;27.09;100.00
4745;BME280;2386;42.138;24.746;2023-08-06T00:59:05;98162.41;;;27.12;100.00
4745;BME280;2386;42.138;24.746;2023-08-06T01:01:31;98146.47;;;27.09;100.00
4745;BME280;2386;42.138;24.746;2023-08-06T01:03:56;98147.97;;;27.03;100.00
4745;BME280;2386;42.138;24.746;2023-08-06T01:06:33;98142.38;;;27.03;100.00
4745;BME280;2386;42.138;24.746;2023-08-06T01:09:17;98138.38;;;27.00;100.00
4745;BME280;2386;42.138;24.746;2023-08-06T01:11:54;98139.94;;;26.98;100.00
4745;BME280;2386;42.138;24.746;2023-08-06T01:14:41;98154.47;;;26.88;100.00
4745;BME280;2386;42.138;24.746;2023-08-06T01:17:09;98155.63;;;26.87;100.00
4745;BME280;2386;42.138;24.746;2023-08-06T01:19:35;98155.25;;;26.88;100.00
4745;BME280;2386;42.138;24.746;2023-08-06T01:22:00;98157.34;;;26.95;100.00
4745;BME280;2386;42.138;24.746;2023-08-06T01:24:26;98147.81;;;26.96;100.00
4745;BME280;2386;42.138;24.746;2023-08-06T01:27:09;98162.19;;;26.98;100.00
4745;BME280;2386;42.138;24.746;2023-08-06T01:29:42;98164.19;;;26.97;100.00
4745;BME280;2386;42.138;24.746;2023-08-06T01:32:11;98174.94;;;26.99;100.00
4745;BME280;2386;42.138;24.746;2023-08-06T01:34:39;98154.28;;;27.00;100.00
4745;BME280;2386;42.138;24.746;2023-08-06T01:37:05;98149.56;;;27.04;100.00
4745;BME280;2386;42.138;24.746;2023-08-06T01:39:33;98149.94;;;27.02;100.00
4745;BME280;2386;42.138;24.746;2023-08-06T01:41:59;98137.63;;;27.03;100.00
4745;BME280;2386;42.138;24.746;2023-08-06T01:44:24;98132.84;;;27.04;100.00
4745;BME280;2386;42.138;24.746;2023-08-06T01:46:50;98128.84;;;27.01;100.00
4745;BME280;2386;42.138;24.746;2023-08-06T01:49:15;98118.38;;;26.95;100.00
4745;BME280;2386;42.138;24.746;2023-08-06T01:51:40;98124.75;;;26.95;100.00
4745;BME280;2386;42.138;24.746;2023-08-06T01:54:06;98123.84;;;26.88;100.00
4745;BME280;2386;42.138;24.746;2023-08-06T01:56:31;98133.84;;;26.92;100.00
4745;BME280;2386;42.138;24.746;2023-08-06T01:58:57;98143.22;;;26.80;100.00
4745;BME280;2386;42.138;24.746;2023-08-06T02:01:22;98135.28;;;26.82;100.00
4745;BME280;2386;42.138;24.746;2023-08-06T02:03:47;98162.81;;;26.61;100.00
4745;BME280;2386;42.138;24.746;2023-08-06T02:06:13;98167.44;;;26.31;100.00
4745;BME280;2386;42.138;24.746;2023-08-06T02:08:39;98150.19;;;26.22;100.00
4745;BME280;2386;42.138;24.746;2023-08-06T02:11:05;98143.00;;;26.40;100.00
4745;BME280;2386;42.138;24.746;2023-08-06T02:13:30;98136.56;;;26.36;100.00
4745;BME280;2386;42.138;24.746;2023-08-06T02:15:55;98147.06;;;26.46;100.00
4745;BME280;2386;42.138;24.746;2023-08-06T02:18:21;98154.78;;;26.56;100.00
4745;BME280;2386;42.138;24.746;2023-08-06T02:20:59;98149.16;;;26.52;100.00
4745;BME280;2386;42.138;24.746;2023-08-06T02:23:25;98154.22;;;26.70;100.00
4745;BME280;2386;42.138;24.746;2023-08-06T02:26:03;98145.38;;;26.64;100.00
4745;BME280;2386;42.138;24.746;2023-08-06T02:28:30;98141.78;;;26.64;100.00
4745;BME280;2386;42.138;24.746;2023-08-06T02:30:56;98136.22;;;26.64;100.00
4745;BME280;2386;42.138;24.746;2023-08-06T02:33:22;98131.56;;;26.71;100.00
4745;BME280;2386;42.138;24.746;2023-08-06T02:35:47;98137.09;;;26.68;100.00
4745;BME280;2386;42.138;24.746;2023-08-06T02:38:13;98134.31;;;26.68;100.00
4745;BME280;2386;42.138;24.746;2023-08-06T02:40:45;98130.34;;;26.69;100.00
4745;BME280;2386;42.138;24.746;2023-08-06T02:43:11;98129.53;;;26.68;100.00
4745;BME280;2386;42.138;24.746;2023-08-06T02:45:36;98133.94;;;26.69;100.00
4745;BME280;2386;42.138;24.746;2023-08-06T02:48:01;98131.56;;;26.71;100.00
4745;BME280;2386;42.138;24.746;2023-08-06T02:50:27;98128.38;;;26.69;100.00
4745;BME280;2386;42.138;24.746;2023-08-06T02:52:53;98133.50;;;26.67;100.00
4745;BME280;2386;42.138;24.746;2023-08-06T02:55:18;98132.53;;;26.56;100.00
4745;BME280;2386;42.138;24.746;2023-08-06T02:57:43;98122.03;;;26.46;100.00
4745;BME280;2386;42.138;24.746;2023-08-06T03:00:09;98120.22;;;26.57;100.00
4745;BME280;2386;42.138;24.746;2023-08-06T03:02:37;98120.53;;;26.52;100.00
4745;BME280;2386;42.138;24.746;2023-08-06T03:05:02;98134.50;;;26.56;100.00
4745;BME280;2386;42.138;24.746;2023-08-06T03:07:28;98121.41;;;26.56;100.00
4745;BME280;2386;42.138;24.746;2023-08-06T03:09:54;98126.66;;;26.61;100.00
4745;BME280;2386;42.138;24.746;2023-08-06T03:12:19;98128.75;;;26.68;100.00
4745;BME280;2386;42.138;24.746;2023-08-06T03:14:45;98125.09;;;26.64;100.00
4745;BME280;2386;42.138;24.746;2023-08-06T03:17:10;98126.75;;;26.68;100.00
4745;BME280;2386;42.138;24.746;2023-08-06T03:19:36;98129.06;;;26.63;100.00
4745;BME280;2386;42.138;24.746;2023-08-06T03:22:01;98113.00;;;26.52;100.00
4745;BME280;2386;42.138;24.746;2023-08-06T03:24:26;98126.22;;;26.59;100.00
4745;BME280;2386;42.138;24.746;2023-08-06T03:26:52;98123.94;;;26.42;100.00
4745;BME280;2386;42.138;24.746;2023-08-06T03:29:17;98136.50;;;26.32;100.00
4745;BME280;2386;42.138;24.746;2023-08-06T03:31:43;98142.88;;;26.33;100.00
4745;BME280;2386;42.138;24.746;2023-08-06T03:34:08;98138.22;;;26.40;100.00
4745;BME280;2386;42.138;24.746;2023-08-06T03:36:33;98133.53;;;26.44;100.00
4745;BME280;2386;42.138;24.746;2023-08-06T03:38:59;98127.22;;;26.47;100.00
4745;BME280;2386;42.138;24.746;2023-08-06T03:41:24;98137.22;;;26.52;100.00
4745;BME280;2386;42.138;24.746;2023-08-06T03:43:49;98136.06;;;26.53;100.00
4745;BME280;2386;42.138;24.746;2023-08-06T03:46:15;98136.38;;;26.48;100.00
4745;BME280;2386;42.138;24.746;2023-08-06T03:48:40;98136.47;;;26.55;100.00
4745;BME280;2386;42.138;24.746;2023-08-06T03:51:05;98135.75;;;26.58;100.00
4745;BME280;2386;42.138;24.746;2023-08-06T03:53:31;98132.22;;;26.38;100.00
4745;BME280;2386;42.138;24.746;2023-08-06T03:55:56;98139.88;;;26.22;100.00
4745;BME280;2386;42.138;24.746;2023-08-06T03:58:25;98143.44;;;26.23;100.00
4745;BME280;2386;42.138;24.746;2023-08-06T04:00:59;98143.09;;;26.24;100.00
4745;BME280;2386;42.138;24.746;2023-08-06T04:03:25;98151.28;;;26.36;100.00
4745;BME280;2386;42.138;24.746;2023-08-06T04:05:50;98148.53;;;26.40;100.00
4745;BME280;2386;42.138;24.746;2023-08-06T04:08:15;98148.97;;;26.42;100.00
4745;BME280;2386;42.138;24.746;2023-08-06T04:10:41;98136.28;;;26.22;100.00
4745;BME280;2386;42.138;24.746;2023-08-06T04:13:06;98146.56;;;26.40;100.00
4745;BME280;2386;42.138;24.746;2023-08-06T04:15:33;98148.66;;;26.47;100.00
4745;BME280;2386;42.138;24.746;2023-08-06T04:17:59;98148.34;;;26.52;100.00
4745;BME280;2386;42.138;24.746;2023-08-06T04:20:24;98149.66;;;26.58;100.00
4745;BME280;2386;42.138;24.746;2023-08-06T04:22:50;98159.91;;;26.54;100.00
4745;BME280;2386;42.138;24.746;2023-08-06T04:25:15;98160.97;;;26.46;100.00
4745;BME280;2386;42.138;24.746;2023-08-06T04:27:46;98164.56;;;26.46;100.00
4745;BME280;2386;42.138;24.746;2023-08-06T04:30:11;98175.06;;;26.34;100.00
4745;BME280;2386;42.138;24.746;2023-08-06T04:32:37;98165.81;;;26.30;100.00
4745;BME280;2386;42.138;24.746;2023-08-06T04:35:03;98164.22;;;26.29;100.00
4745;BME280;2386;42.138;24.746;2023-08-06T04:37:28;98170.50;;;26.26;100.00
4745;BME280;2386;42.138;24.746;2023-08-06T04:39:54;98165.94;;;25.91;100.00
4745;BME280;2386;42.138;24.746;2023-08-06T04:42:19;98156.53;;;26.22;100.00
4745;BME280;2386;42.138;24.746;2023-08-06T04:44:45;98143.13;;;26.28;100.00
4745;BME280;2386;42.138;24.746;2023-08-06T04:47:10;98157.06;;;26.50;100.00
4745;BME280;2386;42.138;24.746;2023-08-06T04:49:35;98145.47;;;26.45;100.00
4745;BME280;2386;42.138;24.746;2023-08-06T04:52:01;98154.13;;;26.20;100.00
4745;BME280;2386;42.138;24.746;2023-08-06T04:54:26;98161.44;;;26.29;100.00
4745;BME280;2386;42.138;24.746;2023-08-06T04:56:51;98164.63;;;26.50;100.00
4745;BME280;2386;42.138;24.746;2023-08-06T04:59:17;98153.63;;;26.34;100.00
4745;BME280;2386;42.138;24.746;2023-08-06T05:01:42;98159.91;;;26.54;100.00
4745;BME280;2386;42.138;24.746;2023-08-06T05:04:08;98165.59;;;26.61;100.00
4745;BME280;2386;42.138;24.746;2023-08-06T05:06:33;98181.97;;;26.66;100.00
4745;BME280;2386;42.138;24.746;2023-08-06T05:08:58;98167.41;;;26.50;100.00
4745;BME280;2386;42.138;24.746;2023-08-06T05:11:24;98167.16;;;26.59;100.00
4745;BME280;2386;42.138;24.746;2023-08-06T05:13:50;98160.16;;;26.45;100.00
4745;BME280;2386;42.138;24.746;2023-08-06T05:16:15;98156.63;;;26.48;100.00
4745;BME280;2386;42.138;24.746;2023-08-06T05:18:41;98156.81;;;26.59;100.00
4745;BME280;2386;42.138;24.746;2023-08-06T05:21:07;98156.78;;;26.33;100.00
4745;BME280;2386;42.138;24.746;2023-08-06T05:23:32;98166.59;;;26.07;100.00
4745;BME280;2386;42.138;24.746;2023-08-06T05:25:58;98171.28;;;26.03;100.00
4745;BME280;2386;42.138;24.746;2023-08-06T05:28:23;98173.97;;;25.96;100.00
4745;BME280;2386;42.138;24.746;2023-08-06T05:30:48;98162.72;;;26.12;100.00
4745;BME280;2386;42.138;24.746;2023-08-06T05:33:14;98162.69;;;26.31;100.00
4745;BME280;2386;42.138;24.746;2023-08-06T05:35:41;98154.84;;;26.37;100.00
4745;BME280;2386;42.138;24.746;2023-08-06T05:38:07;98140.03;;;26.10;100.00
4745;BME280;2386;42.138;24.746;2023-08-06T05:40:35;98154.59;;;25.80;100.00
4745;BME280;2386;42.138;24.746;2023-08-06T05:43:01;98137.91;;;25.42;100.00
4745;BME280;2386;42.138;24.746;2023-08-06T05:45:26;98152.25;;;25.25;100.00
4745;BME280;2386;42.138;24.746;2023-08-06T05:51:13;98133.38;;;24.79;100.00
4745;BME280;2386;42.138;24.746;2023-08-06T05:53:41;98121.81;;;24.42;100.00
4745;BME280;2386;42.138;24.746;2023-08-06T05:56:06;98138.53;;;24.46;100.00
4745;BME280;2386;42.138;24.746;2023-08-06T05:58:31;98134.06;;;24.41;100.00
4745;BME280;2386;42.138;24.746;2023-08-06T06:00:57;98143.28;;;24.30;100.00
4745;BME280;2386;42.138;24.746;2023-08-06T06:03:23;98136.13;;;24.29;100.00
4745;BME280;2386;42.138;24.746;2023-08-06T06:05:48;98137.81;;;24.33;100.00
4745;BME280;2386;42.138;24.746;2023-08-06T06:11:35;98126.44;;;24.22;100.00
4745;BME280;2386;42.138;24.746;2023-08-06T06:14:00;98136.22;;;24.32;100.00
4745;BME280;2386;42.138;24.746;2023-08-06T06:16:26;98129.72;;;24.12;100.00
4745;BME280;2386;42.138;24.746;2023-08-06T06:18:51;98126.88;;;24.09;100.00
4745;BME280;2386;42.138;24.746;2023-08-06T06:21:17;98129.19;;;24.07;100.00
4745;BME280;2386;42.138;24.746;2023-08-06T06:23:42;98138.75;;;24.09;100.00
4745;BME280;2386;42.138;24.746;2023-08-06T06:26:07;98127.94;;;24.04;100.00
4745;BME280;2386;42.138;24.746;2023-08-06T06:28:33;98128.38;;;24.06;100.00
4745;BME280;2386;42.138;24.746;2023-08-06T06:31:01;98131.59;;;24.08;100.00
4745;BME280;2386;42.138;24.746;2023-08-06T06:33:27;98142.69;;;24.08;100.00
4745;BME280;2386;42.138;24.746;2023-08-06T06:35:53;98131.88;;;24.03;100.00
4745;BME280;2386;42.138;24.746;2023-08-06T06:41:14;98147.59;;;23.99;100.00
4745;BME280;2386;42.138;24.746;2023-08-06T06:43:40;98144.47;;;24.16;100.00
4745;BME280;2386;42.138;24.746;2023-08-06T06:46:05;98149.53;;;24.27;100.00
4745;BME280;2386;42.138;24.746;2023-08-06T06:48:32;98152.75;;;24.29;100.00
4745;BME280;2386;42.138;24.746;2023-08-06T06:50:58;98136.56;;;24.31;100.00
4745;BME280;2386;42.138;24.746;2023-08-06T06:53:24;98138.81;;;24.41;100.00
4745;BME280;2386;42.138;24.746;2023-08-06T06:55:53;98141.75;;;24.48;100.00
4745;BME280;2386;42.138;24.746;2023-08-06T06:58:19;98144.28;;;24.72;100.00
4745;BME280;2386;42.138;24.746;2023-08-06T07:00:45;98134.09;;;24.76;100.00
4745;BME280;2386;42.138;24.746;2023-08-06T07:03:11;98146.22;;;24.87;100.00
4745;BME280;2386;42.138;24.746;2023-08-06T07:05:36;98146.38;;;25.10;100.00
4745;BME280;2386;42.138;24.746;2023-08-06T07:08:02;98152.94;;;25.02;100.00
4745;BME280;2386;42.138;24.746;2023-08-06T07:10:27;98153.56;;;25.11;100.00
4745;BME280;2386;42.138;24.746;2023-08-06T07:12:56;98170.72;;;25.17;100.00
4745;BME280;2386;42.138;24.746;2023-08-06T07:15:21;98164.53;;;25.24;100.00
4745;BME280;2386;42.138;24.746;2023-08-06T07:17:47;98174.97;;;25.49;100.00
4745;BME280;2386;42.138;24.746;2023-08-06T07:20:15;98176.00;;;25.61;100.00
4745;BME280;2386;42.138;24.746;2023-08-06T09:30:34;98141.25;;;28.04;78.57
4745;BME280;2386;42.138;24.746;2023-08-06T09:32:59;98153.03;;;28.24;78.64
4745;BME280;2386;42.138;24.746;2023-08-06T09:35:28;98157.59;;;28.46;79.69
4745;BME280;2386;42.138;24.746;2023-08-06T09:37:54;98154.56;;;28.62;75.69
4745;BME280;2386;42.138;24.746;2023-08-06T09:40:26;98147.19;;;28.84;73.93
4745;BME280;2386;42.138;24.746;2023-08-06T09:42:52;98150.16;;;29.16;73.26
4745;BME280;2386;42.138;24.746;2023-08-06T09:45:21;98164.94;;;29.20;69.66
4745;BME280;2386;42.138;24.746;2023-08-06T09:47:48;98150.16;;;29.16;68.37
4745;BME280;2386;42.138;24.746;2023-08-06T09:50:18;98138.56;;;29.14;68.16
4745;BME280;2386;42.138;24.746;2023-08-06T09:52:44;98137.41;;;29.22;66.60
4745;BME280;2386;42.138;24.746;2023-08-06T09:55:13;98129.84;;;29.26;65.75
4745;BME280;2386;42.138;24.746;2023-08-06T09:57:40;98127.88;;;29.27;63.93
4745;BME280;2386;42.138;24.746;2023-08-06T10:00:07;98125.50;;;29.32;64.07
4745;BME280;2386;42.138;24.746;2023-08-06T10:02:37;98141.16;;;29.48;59.96
4745;BME280;2386;42.138;24.746;2023-08-06T10:05:09;98123.97;;;29.42;57.49
4745;BME280;2386;42.138;24.746;2023-08-06T10:07:38;98128.03;;;29.55;58.42
4745;BME280;2386;42.138;24.746;2023-08-06T10:10:06;98124.81;;;29.50;56.22
4745;BME280;2386;42.138;24.746;2023-08-06T10:12:35;98114.81;;;29.49;55.47
4745;BME280;2386;42.138;24.746;2023-08-06T10:15:05;98109.28;;;29.63;56.47
4745;BME280;2386;42.138;24.746;2023-08-06T10:17:33;98108.13;;;29.71;57.88
4745;BME280;2386;42.138;24.746;2023-08-06T10:19:59;98106.91;;;29.79;53.80
4745;BME280;2386;42.138;24.746;2023-08-06T10:22:25;98105.72;;;29.80;50.40
4745;BME280;2386;42.138;24.746;2023-08-06T10:24:54;98100.13;;;29.76;50.50
4745;BME280;2386;42.138;24.746;2023-08-06T10:30:27;98102.19;;;30.01;50.64
4745;BME280;2386;42.138;24.746;2023-08-06T10:32:55;98085.03;;;30.13;51.43
4745;BME280;2386;42.138;24.746;2023-08-06T10:35:40;98089.84;;;30.27;50.20
4745;BME280;2386;42.138;24.746;2023-08-06T10:38:22;98096.25;;;30.34;49.76
4745;BME280;2386;42.138;24.746;2023-08-06T10:43:38;98111.44;;;30.44;49.14
4745;BME280;2386;42.138;24.746;2023-08-06T10:46:09;98099.81;;;30.49;46.63
4745;BME280;2386;42.138;24.746;2023-08-06T10:48:39;98096.22;;;30.66;46.77
4745;BME280;2386;42.138;24.746;2023-08-06T10:51:09;98119.41;;;30.88;47.10
4745;BME280;2386;42.138;24.746;2023-08-06T10:53:35;98112.19;;;30.98;45.29
4745;BME280;2386;42.138;24.746;2023-08-06T10:56:02;98118.19;;;31.00;43.99
4745;BME280;2386;42.138;24.746;2023-08-06T10:58:33;98129.78;;;31.09;44.62
4745;BME280;2386;42.138;24.746;2023-08-06T11:00:59;98130.94;;;31.22;44.13
4745;BME280;2386;42.138;24.746;2023-08-06T11:03:29;98135.38;;;31.20;44.36
4745;BME280;2386;42.138;24.746;2023-08-06T11:05:55;98101.38;;;31.14;45.23
4745;BME280;2386;42.138;24.746;2023-08-06T11:08:34;98103.75;;;31.12;44.57
4745;BME280;2386;42.138;24.746;2023-08-06T11:11:12;98120.13;;;31.24;44.00
4745;BME280;2386;42.138;24.746;2023-08-06T11:13:45;98118.50;;;31.30;43.86
4745;BME280;2386;42.138;24.746;2023-08-06T11:16:23;98120.06;;;31.42;43.98
4745;BME280;2386;42.138;24.746;2023-08-06T11:18:52;98123.25;;;31.48;42.20
4745;BME280;2386;42.138;24.746;2023-08-06T11:21:20;98118.47;;;31.37;40.73
4745;BME280;2386;42.138;24.746;2023-08-06T11:23:46;98126.06;;;31.41;41.53
4745;BME280;2386;42.138;24.746;2023-08-06T11:26:11;98126.41;;;31.57;42.53
4745;BME280;2386;42.138;24.746;2023-08-06T11:28:37;98131.13;;;31.81;41.59
4745;BME280;2386;42.138;24.746;2023-08-06T11:31:02;98134.41;;;31.69;41.00
4745;BME280;2386;42.138;24.746;2023-08-06T11:33:29;98132.81;;;31.68;41.61
4745;BME280;2386;42.138;24.746;2023-08-06T11:35:55;98128.78;;;31.69;41.08
4745;BME280;2386;42.138;24.746;2023-08-06T11:38:24;98127.56;;;31.77;41.57
4745;BME280;2386;42.138;24.746;2023-08-06T11:40:50;98117.53;;;31.76;41.20
4745;BME280;2386;42.138;24.746;2023-08-06T11:43:16;98132.69;;;31.93;40.82
4745;BME280;2386;42.138;24.746;2023-08-06T11:45:43;98113.25;;;32.16;41.63
4745;BME280;2386;42.138;24.746;2023-08-06T11:48:11;98119.97;;;32.37;41.21
4745;BME280;2386;42.138;24.746;2023-08-06T11:50:38;98124.84;;;32.22;39.96
4745;BME280;2386;42.138;24.746;2023-08-06T11:53:06;98126.44;;;32.26;39.39
4745;BME280;2386;42.138;24.746;2023-08-06T11:55:32;98112.47;;;32.12;40.06
4745;BME280;2386;42.138;24.746;2023-08-06T11:57:58;98119.66;;;32.20;39.13
4745;BME280;2386;42.138;24.746;2023-08-06T12:00:25;98138.78;;;32.40;39.86
4745;BME280;2386;42.138;24.746;2023-08-06T12:02:51;98116.63;;;32.52;38.45
4745;BME280;2386;42.138;24.746;2023-08-06T12:05:22;98139.78;;;32.67;38.09
4745;BME280;2386;42.138;24.746;2023-08-06T12:07:58;98141.50;;;32.50;38.04
4745;BME280;2386;42.138;24.746;2023-08-06T12:10:25;98139.56;;;32.44;38.48
4745;BME280;2386;42.138;24.746;2023-08-06T12:12:51;98138.63;;;32.61;37.84
4745;BME280;2386;42.138;24.746;2023-08-06T12:15:17;98135.53;;;33.64;36.25
4745;BME280;2386;42.138;24.746;2023-08-06T12:17:43;98140.28;;;34.02;35.14
4745;BME280;2386;42.138;24.746;2023-08-06T12:20:10;98132.63;;;33.72;36.26
4745;BME280;2386;42.138;24.746;2023-08-06T12:22:36;98140.88;;;33.55;36.12
4745;BME280;2386;42.138;24.746;2023-08-06T12:27:39;98135.72;;;35.08;34.50
4745;BME280;2386;42.138;24.746;2023-08-06T12:30:05;98133.63;;;36.11;31.19
4745;BME280;2386;42.138;24.746;2023-08-06T12:32:31;98131.03;;;37.31;29.34
4745;BME280;2386;42.138;24.746;2023-08-06T12:34:57;98133.66;;;37.38;29.99
4745;BME280;2386;42.138;24.746;2023-08-06T12:37:24;98131.38;;;36.71;30.75
4745;BME280;2386;42.138;24.746;2023-08-06T12:39:50;98135.25;;;35.93;31.67
4745;BME280;2386;42.138;24.746;2023-08-06T12:42:15;98137.19;;;35.16;31.61
4745;BME280;2386;42.138;24.746;2023-08-06T12:44:40;98125.81;;;35.00;33.53
4745;BME280;2386;42.138;24.746;2023-08-06T12:47:09;98133.66;;;35.12;32.54
4745;BME280;2386;42.138;24.746;2023-08-06T12:49:35;98136.25;;;36.38;31.25
4745;BME280;2386;42.138;24.746;2023-08-06T12:52:01;98128.09;;;36.24;30.58
4745;BME280;2386;42.138;24.746;2023-08-06T12:54:27;98140.19;;;36.41;30.63
4745;BME280;2386;42.138;24.746;2023-08-06T12:56:53;98137.91;;;37.88;29.23
4745;BME280;2386;42.138;24.746;2023-08-06T12:59:18;98140.81;;;39.33;27.54
4745;BME280;2386;42.138;24.746;2023-08-06T13:01:44;98149.66;;;39.35;27.23
4745;BME280;2386;42.138;24.746;2023-08-06T13:04:10;98150.38;;;38.79;27.54
4745;BME280;2386;42.138;24.746;2023-08-06T13:06:36;98140.72;;;37.75;28.09
4745;BME280;2386;42.138;24.746;2023-08-06T13:09:03;98156.75;;;37.20;28.89
4745;BME280;2386;42.138;24.746;2023-08-06T13:11:30;98164.22;;;35.97;30.11
4745;BME280;2386;42.138;24.746;2023-08-06T13:14:18;98154.41;;;35.45;31.63
4745;BME280;2386;42.138;24.746;2023-08-06T13:16:43;98146.94;;;34.42;32.56
4745;BME280;2386;42.138;24.746;2023-08-06T13:19:12;98149.63;;;34.22;32.39
4745;BME280;2386;42.138;24.746;2023-08-06T13:24:05;98148.59;;;33.48;33.68
4745;BME280;2386;42.138;24.746;2023-08-06T13:26:31;98137.91;;;33.36;34.06
4745;BME280;2386;42.138;24.746;2023-08-06T13:28:57;98131.84;;;32.99;33.58
4745;BME280;2386;42.138;24.746;2023-08-06T13:31:23;98135.91;;;32.95;33.96
4745;BME280;2386;42.138;24.746;2023-08-06T13:33:48;98139.09;;;32.97;34.92
4745;BME280;2386;42.138;24.746;2023-08-06T13:36:15;98133.13;;;33.33;34.27
4745;BME280;2386;42.138;24.746;2023-08-06T13:38:41;98135.31;;;33.48;36.21
4745;BME280;2386;42.138;24.746;2023-08-06T13:41:06;98139.31;;;33.85;36.10
4745;BME280;2386;42.138;24.746;2023-08-06T13:43:32;98135.97;;;34.47;33.90
4745;BME280;2386;42.138;24.746;2023-08-06T13:45:57;98152.56;;;36.63;29.76
4745;BME280;2386;42.138;24.746;2023-08-06T13:48:22;98162.44;;;38.32;26.00
4745;BME280;2386;42.138;24.746;2023-08-06T13:50:48;98162.72;;;40.29;24.75
4745;BME280;2386;42.138;24.746;2023-08-06T13:53:13;98166.78;;;41.90;22.63
4745;BME280;2386;42.138;24.746;2023-08-06T13:55:39;98161.66;;;43.12;21.16
4745;BME280;2386;42.138;24.746;2023-08-06T13:58:04;98168.13;;;43.60;20.53
4745;BME280;2386;42.138;24.746;2023-08-06T14:00:30;98176.63;;;43.69;20.25
4745;BME280;2386;42.138;24.746;2023-08-06T14:02:55;98179.44;;;43.54;19.83
4745;BME280;2386;42.138;24.746;2023-08-06T14:05:21;98183.91;;;42.42;21.36
4745;BME280;2386;42.138;24.746;2023-08-06T14:07:46;98182.94;;;43.11;20.71
4745;BME280;2386;42.138;24.746;2023-08-06T14:10:11;98193.50;;;44.41;19.71
4745;BME280;2386;42.138;24.746;2023-08-06T14:12:37;98190.63;;;44.41;18.94
4745;BME280;2386;42.138;24.746;2023-08-06T14:15:03;98200.44;;;44.69;18.66
4745;BME280;2386;42.138;24.746;2023-08-06T14:17:29;98195.56;;;43.67;19.67
4745;BME280;2386;42.138;24.746;2023-08-06T14:19:54;98201.63;;;43.59;19.92
4745;BME280;2386;42.138;24.746;2023-08-06T14:22:19;98192.53;;;43.46;19.78
4745;BME280;2386;42.138;24.746;2023-08-06T14:24:45;98189.38;;;43.44;19.72
4745;BME280;2386;42.138;24.746;2023-08-06T14:27:12;98188.88;;;44.29;18.79
4745;BME280;2386;42.138;24.746;2023-08-06T14:29:38;98192.31;;;43.74;19.01
4745;BME280;2386;42.138;24.746;2023-08-06T14:32:03;98190.53;;;42.57;21.51
4745;BME280;2386;42.138;24.746;2023-08-06T14:34:29;98189.09;;;41.10;22.00
4745;BME280;2386;42.138;24.746;2023-08-06T14:36:54;98200.94;;;40.28;23.27
4745;BME280;2386;42.138;24.746;2023-08-06T14:39:19;98196.56;;;39.83;23.20
4745;BME280;2386;42.138;24.746;2023-08-06T14:41:46;98201.69;;;40.19;23.50
4745;BME280;2386;42.138;24.746;2023-08-06T14:44:12;98192.63;;;41.50;21.88
4745;BME280;2386;42.138;24.746;2023-08-06T14:46:37;98193.53;;;42.95;20.40
4745;BME280;2386;42.138;24.746;2023-08-06T14:49:03;98206.81;;;43.46;19.99
4745;BME280;2386;42.138;24.746;2023-08-06T14:51:28;98211.34;;;44.36;20.11
4745;BME280;2386;42.138;24.746;2023-08-06T14:53:53;98215.81;;;44.07;19.73
4745;BME280;2386;42.138;24.746;2023-08-06T14:56:19;98216.41;;;44.11;19.74
4745;BME280;2386;42.138;24.746;2023-08-06T14:58:44;98213.00;;;45.47;19.22
4745;BME280;2386;42.138;24.746;2023-08-06T15:01:10;98211.41;;;46.39;18.21
4745;BME280;2386;42.138;24.746;2023-08-06T15:03:35;98207.91;;;44.96;19.02
4745;BME280;2386;42.138;24.746;2023-08-06T15:06:01;98217.91;;;44.86;19.38
4745;BME280;2386;42.138;24.746;2023-08-06T15:08:26;98208.34;;;44.74;19.64
4745;BME280;2386;42.138;24.746;2023-08-06T15:10:52;98217.09;;;44.36;19.83
4745;BME280;2386;42.138;24.746;2023-08-06T15:13:19;98214.31;;;44.27;19.64
4745;BME280;2386;42.138;24.746;2023-08-06T15:15:49;98218.50;;;43.34;20.47
4745;BME280;2386;42.138;24.746;2023-08-06T15:18:14;98206.53;;;41.85;21.70
4745;BME280;2386;42.138;24.746;2023-08-06T15:20:40;98211.66;;;40.95;22.35
4745;BME280;2386;42.138;24.746;2023-08-06T15:23:05;98202.81;;;40.22;23.01
4745;BME280;2386;42.138;24.746;2023-08-06T15:25:30;98198.69;;;39.70;23.46
4745;BME280;2386;42.138;24.746;2023-08-06T15:27:56;98191.22;;;38.82;24.98
4745;BME280;2386;42.138;24.746;2023-08-06T15:30:21;98194.50;;;37.75;24.94